Mesita, Colorado
Current Conditions -  °F | °C
As of 12:59 AM on Friday 19 Dec 2014 (Local Time) from KALS Reporting Station
Scattered Clouds Scattered Clouds  
Wind Chill: -13°   Ceiling: Unl
Heat Index: -13°   Visibility: 10mi
Dew Point: -15°   Wind: 0mph
Humidity: 87%   Direction: NA
Pressure: 30.12"   Gusts: NA
Location:  37.0838°N, 105.58°W
Report Text: KALS 190759Z AUTO 00000KT 10SM SCT003 M13/M15 A3012 RMK AO2 T11331150
Loading
Personal Weather Stations






























Interactive Weather Map New forecast layout! Learn more

10-Day Weather Forecast

Advertisements
Track Severe Weather on mobile